Time;durP1;ratioP1;P1;durP2;ratioP2;P2;SDS_P1;SDS_P2;PMS_P1;PMS_P2;Temp;Humidity;BMP_temperature;BMP_pressure;BME280_temperature;BME280_humidity;BME280_pressure;Samples;Min_cycle;Max_cycle;Signal;HPM_P1;HPM_P2
2022/01/13 00:00:23;;;;;;;25.10;18.90;;;4.10;75.90;;;;;;5017095;28;20201;-78
2022/01/13 00:02:51;;;;;;;26.95;18.92;;;4.10;75.90;;;;;;5019528;28;20204;-78
2022/01/13 00:05:26;;;;;;;26.77;18.80;;;4.10;75.90;;;;;;4999720;28;20281;-78
2022/01/13 00:07:55;;;;;;;23.33;17.92;;;4.20;75.90;;;;;;5014222;28;20725;-77
2022/01/13 00:10:24;;;;;;;26.27;17.73;;;4.20;75.90;;;;;;5018654;28;20216;-78
2022/01/13 00:12:58;;;;;;;25.30;17.67;;;4.20;75.90;;;;;;5020480;28;20313;-78
2022/01/13 00:15:39;;;;;;;29.95;19.63;;;4.20;76.00;;;;;;5020745;28;20254;-78
2022/01/13 00:18:12;;;;;;;28.73;19.30;;;4.30;75.90;;;;;;5021382;28;20220;-78
2022/01/13 00:21:13;;;;;;;23.55;18.15;;;4.30;75.90;;;;;;5015607;28;20217;-78
2022/01/13 00:23:44;;;;;;;24.83;17.30;;;4.30;75.90;;;;;;5015300;28;20201;-78
2022/01/13 00:26:18;;;;;;;26.98;19.30;;;4.30;75.90;;;;;;5014103;28;20202;-77
2022/01/13 00:28:48;;;;;;;27.60;19.35;;;4.30;75.90;;;;;;5021149;28;20211;-78
2022/01/13 00:31:24;;;;;;;23.20;17.23;;;4.30;75.90;;;;;;5017521;28;20193;-78
2022/01/13 00:33:54;;;;;;;29.00;19.90;;;4.30;76.00;;;;;;5020724;28;20263;-78
2022/01/13 00:36:24;;;;;;;24.80;18.55;;;4.30;76.00;;;;;;5018181;28;20550;-77
2022/01/13 00:38:52;;;;;;;25.10;16.98;;;4.30;76.00;;;;;;5014109;28;20205;-78
2022/01/13 00:41:20;;;;;;;25.92;19.17;;;4.30;76.00;;;;;;5016408;28;20944;-78
2022/01/13 00:43:49;;;;;;;26.17;18.85;;;4.40;76.00;;;;;;5018366;28;20205;-78
2022/01/13 00:46:22;;;;;;;25.65;18.63;;;4.40;76.00;;;;;;5018603;28;20601;-78
2022/01/13 00:48:51;;;;;;;25.75;19.15;;;4.40;76.00;;;;;;5015016;28;20202;-77
2022/01/13 00:51:19;;;;;;;24.00;16.83;;;4.40;75.90;;;;;;5019735;28;20462;-77
2022/01/13 00:53:47;;;;;;;28.27;18.95;;;4.40;76.00;;;;;;5016870;28;20904;-77
2022/01/13 00:56:16;;;;;;;26.45;17.48;;;4.40;76.00;;;;;;5010819;28;20210;-77
2022/01/13 00:58:44;;;;;;;24.42;17.00;;;4.40;76.10;;;;;;5016027;28;20250;-77
2022/01/13 01:01:12;;;;;;;27.55;18.90;;;4.40;76.00;;;;;;5012655;28;20216;-77
2022/01/13 01:03:42;;;;;;;27.13;18.30;;;4.40;75.90;;;;;;5014581;28;20267;-77
2022/01/13 01:06:10;;;;;;;24.98;18.73;;;4.40;76.00;;;;;;5017832;28;20214;-77
2022/01/13 01:08:39;;;;;;;25.42;18.83;;;4.40;76.00;;;;;;5006573;28;21771;-77
2022/01/13 01:11:07;;;;;;;24.33;17.92;;;4.40;76.00;;;;;;5016930;28;20570;-77
2022/01/13 01:13:37;;;;;;;24.38;18.30;;;4.40;76.00;;;;;;5015978;28;20599;-77
2022/01/13 01:16:09;;;;;;;32.10;21.98;;;4.40;75.90;;;;;;5018148;28;20209;-77
2022/01/13 01:18:49;;;;;;;33.70;20.98;;;4.40;75.90;;;;;;5001779;28;20323;-77
2022/01/13 01:24:28;;;;;;;31.35;20.15;;;4.30;76.10;;;;;;4981459;28;20233;-77
2022/01/13 01:27:01;;;;;;;21.48;17.10;;;4.30;76.10;;;;;;5016152;28;20239;-77
2022/01/13 01:29:35;;;;;;;23.65;16.30;;;4.30;76.00;;;;;;5005953;28;20209;-77
2022/01/13 01:32:08;;;;;;;22.50;15.82;;;4.20;76.10;;;;;;5007392;28;20205;-77
2022/01/13 01:34:51;;;;;;;24.77;16.40;;;4.20;76.30;;;;;;5001266;28;20212;-76
2022/01/13 01:37:23;;;;;;;22.77;15.48;;;4.30;76.40;;;;;;5015029;28;20231;-77
2022/01/13 01:39:52;;;;;;;22.92;16.88;;;4.30;76.40;;;;;;5022375;28;20206;-77
2022/01/13 01:42:22;;;;;;;25.23;14.80;;;4.30;76.40;;;;;;5017364;28;20213;-76
2022/01/13 01:44:53;;;;;;;25.15;16.77;;;4.40;76.40;;;;;;5020029;28;20201;-77
2022/01/13 01:47:23;;;;;;;26.67;16.63;;;4.40;76.30;;;;;;5026799;28;20315;-77
2022/01/13 01:49:56;;;;;;;22.48;16.25;;;4.40;76.30;;;;;;5024219;28;20679;-77
2022/01/13 01:52:26;;;;;;;23.50;15.68;;;4.40;76.30;;;;;;5017779;28;20211;-77
2022/01/13 01:54:55;;;;;;;24.85;18.10;;;4.40;76.30;;;;;;5022714;28;20564;-80
2022/01/13 01:57:24;;;;;;;23.42;16.83;;;4.40;76.30;;;;;;5020596;28;20267;-77
2022/01/13 01:59:53;;;;;;;22.77;16.33;;;4.40;76.30;;;;;;4999584;28;20205;-77
2022/01/13 02:02:26;;;;;;;23.50;16.00;;;4.40;76.30;;;;;;5004019;28;20225;-77
2022/01/13 02:04:54;;;;;;;23.92;17.00;;;4.40;76.30;;;;;;5020417;28;20200;-78
2022/01/13 02:07:22;;;;;;;21.25;15.48;;;4.40;76.30;;;;;;5016604;28;20796;-77
2022/01/13 02:09:53;;;;;;;22.17;15.13;;;4.40;76.30;;;;;;5024109;28;20204;-77
2022/01/13 02:12:35;;;;;;;25.60;16.05;;;4.40;76.40;;;;;;5019864;28;20197;-77
2022/01/13 02:15:30;;;;;;;25.80;17.13;;;4.40;76.40;;;;;;5015423;28;20266;-77
2022/01/13 02:18:00;;;;;;;21.95;16.00;;;4.40;76.40;;;;;;5003306;28;21164;-77
2022/01/13 02:20:47;;;;;;;23.15;16.63;;;4.40;76.40;;;;;;5017463;28;20678;-77
2022/01/13 02:23:32;;;;;;;24.75;15.07;;;4.40;76.60;;;;;;5019017;28;20221;-77
2022/01/13 02:26:01;;;;;;;23.13;16.30;;;4.50;76.60;;;;;;5018213;28;20216;-77
2022/01/13 02:28:29;;;;;;;20.70;15.05;;;4.50;76.60;;;;;;5019435;28;20217;-77
2022/01/13 02:30:58;;;;;;;29.25;17.08;;;4.50;76.60;;;;;;5019891;28;20675;-78
2022/01/13 02:33:26;;;;;;;25.05;17.58;;;4.50;76.60;;;;;;5015891;28;20205;-77
2022/01/13 02:35:56;;;;;;;29.23;16.80;;;4.50;76.60;;;;;;5018369;28;20255;-77
2022/01/13 02:38:24;;;;;;;25.23;17.05;;;4.50;76.60;;;;;;5018701;28;20699;-77
2022/01/13 02:40:56;;;;;;;26.50;17.88;;;4.50;76.60;;;;;;5018807;28;20202;-77
2022/01/13 02:43:25;;;;;;;23.58;16.65;;;4.50;76.70;;;;;;5023782;28;20275;-77
2022/01/13 02:46:06;;;;;;;25.77;17.75;;;4.50;76.70;;;;;;5017084;28;20673;-77
2022/01/13 02:48:35;;;;;;;29.33;17.90;;;4.50;76.70;;;;;;5016855;28;20228;-77
2022/01/13 02:51:05;;;;;;;25.17;17.20;;;4.50;76.70;;;;;;5018019;28;20205;-77
2022/01/13 02:53:33;;;;;;;24.48;17.92;;;4.50;76.70;;;;;;5001638;28;20214;-78
2022/01/13 02:56:05;;;;;;;23.00;17.20;;;4.50;76.70;;;;;;5020824;28;20197;-77
2022/01/13 02:58:34;;;;;;;30.08;17.60;;;4.50;76.70;;;;;;5018263;28;20228;-78
2022/01/13 03:01:05;;;;;;;21.95;16.40;;;4.50;76.70;;;;;;5018647;28;20209;-77
2022/01/13 03:03:35;;;;;;;26.17;17.38;;;4.50;76.70;;;;;;4999190;28;20221;-77
2022/01/13 03:06:08;;;;;;;26.92;17.60;;;4.50;76.70;;;;;;5017493;28;20206;-77
2022/01/13 03:08:37;;;;;;;25.45;17.15;;;4.50;76.80;;;;;;5018745;28;20280;-77
2022/01/13 03:11:05;;;;;;;25.92;17.17;;;4.50;76.80;;;;;;5022626;28;20262;-76
2022/01/13 03:13:34;;;;;;;28.83;16.77;;;4.50;76.80;;;;;;5018637;28;20682;-77
2022/01/13 03:16:06;;;;;;;25.77;18.27;;;4.50;76.80;;;;;;5020399;28;20208;-77
2022/01/13 03:18:34;;;;;;;24.95;17.15;;;4.50;76.80;;;;;;4998011;28;20224;-77
2022/01/13 03:21:02;;;;;;;26.42;17.52;;;4.50;76.80;;;;;;5016296;28;20208;-77
2022/01/13 03:23:32;;;;;;;25.00;17.45;;;4.50;76.80;;;;;;5017438;28;20630;-78
2022/01/13 03:26:00;;;;;;;27.40;17.00;;;4.50;76.90;;;;;;5018564;28;20208;-77
2022/01/13 03:28:31;;;;;;;24.52;17.48;;;4.50;76.80;;;;;;5014313;28;20233;-77
2022/01/13 03:31:01;;;;;;;22.38;16.27;;;4.50;76.90;;;;;;5015546;28;20201;-78
2022/01/13 03:33:29;;;;;;;21.23;16.23;;;4.50;77.00;;;;;;5019506;28;20217;-77
2022/01/13 03:35:58;;;;;;;21.13;15.63;;;4.50;77.00;;;;;;5016441;28;20202;-78
2022/01/13 03:38:27;;;;;;;21.27;16.63;;;4.50;77.00;;;;;;5019052;28;20787;-77
2022/01/13 03:40:56;;;;;;;25.45;16.08;;;4.50;77.00;;;;;;5005674;28;20206;-77
2022/01/13 03:43:24;;;;;;;22.42;17.05;;;4.50;76.90;;;;;;5017842;28;20228;-78
2022/01/13 03:45:53;;;;;;;23.90;16.90;;;4.50;77.00;;;;;;5015436;28;20640;-78
2022/01/13 03:48:21;;;;;;;25.13;17.55;;;4.50;77.00;;;;;;5018133;28;20224;-78
2022/01/13 03:50:48;;;;;;;25.80;17.58;;;4.50;77.00;;;;;;5015757;28;20915;-77
2022/01/13 03:54:02;;;;;;;24.77;16.20;;;4.50;77.00;;;;;;5018881;28;20196;-78
2022/01/13 03:57:35;;;;;;;25.83;16.75;;;4.50;77.10;;;;;;5004664;28;20213;-77
2022/01/13 04:01:04;;;;;;;44.30;29.55;;;4.50;77.10;;;;;;5015662;28;20255;-77
2022/01/13 04:03:33;;;;;;;36.10;23.73;;;4.50;77.00;;;;;;5018933;28;20228;-77
2022/01/13 04:06:05;;;;;;;27.75;18.52;;;4.40;77.00;;;;;;5019474;28;20208;-77
2022/01/13 04:08:33;;;;;;;26.25;16.38;;;4.40;77.10;;;;;;5016229;28;20224;-77
2022/01/13 04:11:14;;;;;;;27.67;17.63;;;4.40;77.20;;;;;;5016530;28;20217;-79
2022/01/13 04:13:48;;;;;;;25.95;17.63;;;4.50;77.20;;;;;;5018222;28;20682;-77
2022/01/13 04:16:18;;;;;;;26.52;18.10;;;4.50;77.20;;;;;;5021067;28;20211;-77
2022/01/13 04:18:47;;;;;;;24.63;16.52;;;4.50;77.20;;;;;;5017076;28;20212;-76
2022/01/13 04:21:17;;;;;;;25.33;16.70;;;4.50;77.30;;;;;;5017513;28;20205;-77
2022/01/13 04:23:45;;;;;;;26.40;17.38;;;4.50;77.30;;;;;;5018079;28;20221;-77
2022/01/13 04:26:18;;;;;;;25.25;16.48;;;4.50;77.20;;;;;;5019060;28;20201;-77
2022/01/13 04:28:51;;;;;;;20.95;15.02;;;4.50;77.30;;;;;;5016248;28;20201;-76
2022/01/13 04:31:19;;;;;;;24.83;15.70;;;4.50;77.30;;;;;;5017826;28;20745;-77
2022/01/13 04:33:47;;;;;;;22.35;14.68;;;4.50;77.30;;;;;;5016314;28;20208;-76
2022/01/13 04:36:15;;;;;;;22.73;15.10;;;4.50;77.30;;;;;;5015505;28;20206;-77
2022/01/13 04:38:43;;;;;;;22.92;14.95;;;4.50;77.30;;;;;;5018718;28;20208;-76
2022/01/13 04:41:11;;;;;;;28.60;16.63;;;4.50;77.30;;;;;;5016707;28;20205;-77
2022/01/13 04:43:38;;;;;;;22.38;15.77;;;4.50;77.30;;;;;;5017484;28;20213;-78
2022/01/13 04:46:08;;;;;;;24.08;15.60;;;4.50;77.30;;;;;;5019713;28;20205;-77
2022/01/13 04:48:36;;;;;;;23.77;15.20;;;4.50;77.40;;;;;;5018523;28;20229;-77
2022/01/13 04:51:04;;;;;;;25.88;16.63;;;4.50;77.40;;;;;;5017431;28;20206;-77
2022/01/13 04:53:32;;;;;;;23.33;15.07;;;4.50;77.40;;;;;;5018245;28;20197;-77
2022/01/13 04:56:08;;;;;;;18.67;12.68;;;4.50;77.40;;;;;;5000103;28;20210;-77
2022/01/13 04:58:37;;;;;;;16.83;12.18;;;4.50;77.40;;;;;;5002913;28;20228;-77
2022/01/13 05:01:04;;;;;;;17.67;12.52;;;4.50;77.40;;;;;;5005395;28;20266;-77
2022/01/13 05:03:34;;;;;;;18.05;13.30;;;4.50;77.40;;;;;;5005890;28;20232;-78
2022/01/13 05:06:03;;;;;;;17.25;11.85;;;4.50;77.40;;;;;;5018626;28;20216;-78
2022/01/13 05:08:31;;;;;;;16.42;10.85;;;4.50;77.30;;;;;;5003843;28;20279;-77
2022/01/13 05:10:59;;;;;;;16.02;10.63;;;4.50;77.30;;;;;;5016035;28;20662;-78
2022/01/13 05:13:27;;;;;;;15.05;10.05;;;4.40;77.20;;;;;;5016736;28;20681;-77
2022/01/13 05:15:55;;;;;;;14.48;10.00;;;4.40;77.20;;;;;;5018097;28;20317;-78
2022/01/13 05:18:29;;;;;;;18.58;12.93;;;4.40;77.30;;;;;;5022398;28;20593;-78
2022/01/13 05:21:03;;;;;;;16.98;11.10;;;4.30;77.40;;;;;;5017741;28;20205;-78
2022/01/13 05:23:31;;;;;;;15.25;10.00;;;4.30;77.40;;;;;;5018297;28;20700;-78
2022/01/13 05:26:00;;;;;;;16.00;9.30;;;4.30;77.40;;;;;;5014038;28;20197;-78
2022/01/13 05:28:28;;;;;;;15.23;9.68;;;4.30;77.40;;;;;;5016283;28;20252;-78
2022/01/13 05:30:56;;;;;;;18.10;11.13;;;4.30;77.40;;;;;;5017983;28;20713;-78
2022/01/13 05:33:24;;;;;;;16.77;12.15;;;4.30;77.40;;;;;;5013928;28;20220;-77
2022/01/13 05:35:51;;;;;;;18.13;12.77;;;4.30;77.50;;;;;;5018172;28;20217;-77
2022/01/13 05:38:21;;;;;;;20.15;13.35;;;4.40;77.50;;;;;;5020765;28;20277;-78
2022/01/13 05:40:49;;;;;;;17.45;12.02;;;4.40;77.50;;;;;;5000716;28;20619;-80
2022/01/13 05:43:17;;;;;;;20.45;13.88;;;4.40;77.30;;;;;;5020406;28;20216;-79
2022/01/13 05:45:45;;;;;;;20.42;12.70;;;4.30;77.40;;;;;;5014530;28;20190;-82
2022/01/13 05:48:13;;;;;;;14.52;9.70;;;4.30;77.40;;;;;;5003670;28;20220;-83
2022/01/13 05:50:41;;;;;;;12.70;9.20;;;4.30;77.40;;;;;;5020470;28;20212;-83
2022/01/13 05:53:09;;;;;;;13.90;9.15;;;4.30;77.30;;;;;;5021149;28;20734;-82
2022/01/13 05:55:39;;;;;;;18.10;10.52;;;4.30;77.30;;;;;;5017217;28;20212;-83
2022/01/13 05:58:07;;;;;;;13.20;9.45;;;4.20;77.30;;;;;;5014865;28;20221;-82
2022/01/13 06:00:36;;;;;;;14.60;9.85;;;4.20;77.30;;;;;;5002505;28;20216;-83
2022/01/13 06:03:05;;;;;;;14.25;9.65;;;4.20;77.40;;;;;;5019059;28;20211;-83
2022/01/13 06:05:35;;;;;;;12.52;9.10;;;4.20;77.30;;;;;;5001848;28;20320;-83
2022/01/13 06:08:04;;;;;;;16.05;9.77;;;4.20;77.20;;;;;;5019398;28;20217;-82
2022/01/13 06:10:32;;;;;;;12.30;8.27;;;4.10;77.20;;;;;;5021479;28;20628;-83
2022/01/13 06:13:01;;;;;;;15.18;8.55;;;4.00;77.10;;;;;;5004254;28;20206;-83
2022/01/13 06:15:29;;;;;;;14.52;8.50;;;4.00;77.20;;;;;;5021613;28;20247;-83
2022/01/13 06:17:57;;;;;;;13.90;8.77;;;3.90;77.40;;;;;;4998063;28;20593;-83
2022/01/13 06:20:25;;;;;;;14.35;10.32;;;3.90;77.50;;;;;;5007424;28;20232;-83
2022/01/13 06:22:54;;;;;;;13.68;9.90;;;3.90;77.60;;;;;;5021291;28;20223;-82
2022/01/13 06:25:22;;;;;;;14.82;9.40;;;4.00;77.70;;;;;;5004069;28;20224;-83
2022/01/13 06:27:50;;;;;;;13.52;8.75;;;4.00;77.60;;;;;;5011048;28;20225;-83
2022/01/13 06:30:39;;;;;;;13.20;9.10;;;3.90;77.60;;;;;;5007690;28;20283;-83
2022/01/13 06:33:07;;;;;;;13.70;10.02;;;3.90;77.60;;;;;;5001796;28;20233;-83
2022/01/13 06:35:36;;;;;;;14.25;9.43;;;3.90;77.60;;;;;;5010890;28;20937;-82
2022/01/13 06:38:04;;;;;;;13.60;9.65;;;3.90;77.60;;;;;;5023215;28;20275;-83
2022/01/13 06:40:32;;;;;;;14.90;10.75;;;3.90;77.60;;;;;;5017279;28;20209;-83
2022/01/13 06:43:00;;;;;;;13.82;10.15;;;3.90;77.70;;;;;;5021942;28;20620;-83
2022/01/13 06:45:29;;;;;;;17.45;9.80;;;3.90;77.60;;;;;;5018047;28;20230;-82
2022/01/13 06:47:58;;;;;;;17.48;11.18;;;3.90;77.60;;;;;;5010342;28;20240;-83
2022/01/13 06:50:26;;;;;;;15.18;9.05;;;3.90;77.70;;;;;;5027825;28;20212;-83
2022/01/13 06:52:54;;;;;;;16.63;10.75;;;3.90;77.70;;;;;;5028508;28;20205;-83
2022/01/13 06:55:22;;;;;;;15.63;10.95;;;3.90;77.60;;;;;;5021367;28;20793;-83
2022/01/13 06:57:50;;;;;;;17.77;10.35;;;3.90;77.60;;;;;;5022045;28;20216;-83
2022/01/13 07:00:18;;;;;;;20.63;10.90;;;3.90;77.70;;;;;;5019589;28;20260;-83
2022/01/13 07:02:46;;;;;;;16.95;10.32;;;3.90;77.70;;;;;;5017621;28;20288;-82
2022/01/13 07:05:16;;;;;;;16.83;10.77;;;3.90;77.70;;;;;;5022749;28;20300;-83
2022/01/13 07:07:45;;;;;;;21.00;11.18;;;3.90;77.70;;;;;;5014283;28;20240;-83
2022/01/13 07:10:14;;;;;;;16.98;11.88;;;3.90;77.80;;;;;;5002667;28;20206;-83
2022/01/13 07:12:43;;;;;;;17.52;10.90;;;3.90;77.80;;;;;;5025117;28;20208;-83
2022/01/13 07:15:12;;;;;;;19.45;11.52;;;3.90;77.70;;;;;;5004319;28;20197;-83
2022/01/13 07:17:40;;;;;;;15.68;10.23;;;3.90;77.70;;;;;;5025151;28;20245;-83
2022/01/13 07:20:09;;;;;;;18.05;12.38;;;3.90;77.70;;;;;;5021180;28;21004;-83
2022/01/13 07:22:39;;;;;;;13.85;9.63;;;3.90;77.70;;;;;;5014353;28;20222;-83
2022/01/13 07:25:08;;;;;;;16.48;11.20;;;3.90;77.80;;;;;;5011845;28;20221;-80
2022/01/13 07:27:39;;;;;;;14.90;11.15;;;3.80;77.80;;;;;;5021940;28;20229;-79
2022/01/13 07:30:09;;;;;;;21.35;12.40;;;3.80;77.80;;;;;;5017064;28;20205;-79
2022/01/13 07:32:39;;;;;;;16.23;11.70;;;3.80;77.80;;;;;;5013041;28;20207;-78
2022/01/13 07:35:08;;;;;;;16.00;10.57;;;3.80;77.90;;;;;;5021518;28;20201;-78
2022/01/13 07:37:36;;;;;;;17.73;11.63;;;3.90;78.00;;;;;;5023090;28;20232;-78
2022/01/13 07:40:08;;;;;;;16.95;11.63;;;3.90;77.90;;;;;;5016015;28;20624;-78
2022/01/13 07:42:41;;;;;;;19.10;11.23;;;3.90;77.80;;;;;;5009912;28;20250;-78
2022/01/13 07:45:10;;;;;;;16.40;11.95;;;3.90;77.80;;;;;;5013283;28;20251;-78
2022/01/13 07:47:38;;;;;;;15.85;11.00;;;3.90;77.90;;;;;;5019571;28;20233;-79
2022/01/13 07:50:08;;;;;;;15.85;10.65;;;3.90;77.90;;;;;;5025025;28;20221;-79
2022/01/13 07:52:36;;;;;;;17.15;11.82;;;3.90;78.00;;;;;;5022643;28;20218;-79
2022/01/13 07:55:06;;;;;;;16.45;11.27;;;3.90;77.90;;;;;;5021907;28;20194;-79
2022/01/13 07:57:35;;;;;;;18.70;12.00;;;3.90;77.80;;;;;;5018538;28;20221;-78
2022/01/13 08:00:05;;;;;;;22.45;12.93;;;3.90;77.80;;;;;;5019920;28;20193;-78
2022/01/13 08:02:39;;;;;;;20.90;12.23;;;3.90;77.80;;;;;;5020506;28;20205;-77
2022/01/13 08:05:08;;;;;;;17.35;12.73;;;3.80;77.90;;;;;;5016946;28;20214;-79
2022/01/13 08:07:36;;;;;;;16.60;12.27;;;3.80;77.90;;;;;;5023758;28;20228;-78
2022/01/13 08:10:06;;;;;;;17.45;11.73;;;3.80;77.90;;;;;;5020180;28;20202;-78
2022/01/13 08:12:34;;;;;;;20.08;12.90;;;3.80;77.90;;;;;;5018776;28;20209;-78
2022/01/13 08:15:02;;;;;;;19.40;13.15;;;3.80;77.90;;;;;;5023949;28;20205;-79
2022/01/13 08:20:16;;;;;;;18.60;13.30;;;3.80;78.10;;;;;;5020054;28;20216;-79
2022/01/13 08:22:43;;;;;;;18.88;13.05;;;3.80;78.10;;;;;;5026321;28;20208;-78
2022/01/13 08:25:15;;;;;;;21.38;14.00;;;3.80;78.10;;;;;;5015175;28;20225;-78
2022/01/13 08:27:42;;;;;;;20.85;13.38;;;3.80;78.10;;;;;;4996891;28;20276;-77
2022/01/13 08:30:12;;;;;;;23.85;14.88;;;3.80;78.10;;;;;;5005665;28;20210;-78
2022/01/13 08:32:40;;;;;;;18.17;13.00;;;3.80;78.10;;;;;;5023898;28;20209;-77
2022/01/13 08:35:10;;;;;;;19.80;13.68;;;3.80;78.20;;;;;;5016774;28;20685;-79
2022/01/13 08:37:38;;;;;;;23.42;14.52;;;3.80;78.20;;;;;;5021253;28;20233;-78
2022/01/13 08:40:10;;;;;;;23.48;15.88;;;3.80;78.20;;;;;;5005009;28;20213;-78
2022/01/13 08:42:39;;;;;;;22.75;14.70;;;3.80;78.10;;;;;;5025067;28;20238;-78
2022/01/13 08:45:10;;;;;;;20.45;14.20;;;3.80;78.20;;;;;;5020441;28;20212;-79
2022/01/13 08:47:38;;;;;;;20.67;13.65;;;3.80;78.20;;;;;;5019581;28;20740;-78
2022/01/13 08:50:07;;;;;;;21.88;14.65;;;3.90;78.30;;;;;;5020789;28;20274;-78
2022/01/13 08:52:37;;;;;;;22.08;15.00;;;3.90;78.30;;;;;;5018472;28;20211;-78
2022/01/13 08:55:07;;;;;;;18.92;14.20;;;3.90;78.20;;;;;;4993403;28;20625;-78
2022/01/13 08:57:36;;;;;;;21.60;14.30;;;3.90;78.20;;;;;;5015719;28;20263;-78
2022/01/13 09:00:07;;;;;;;21.20;14.80;;;3.90;78.20;;;;;;5023050;28;20206;-78
2022/01/13 09:02:40;;;;;;;19.13;13.95;;;3.90;78.30;;;;;;5004781;28;20212;-78
2022/01/13 09:05:09;;;;;;;120.93;62.83;;;3.90;78.30;;;;;;5016570;28;20236;-78
2022/01/13 09:07:37;;;;;;;47.67;30.08;;;3.90;78.30;;;;;;5017505;28;20229;-79
2022/01/13 09:10:07;;;;;;;28.65;19.13;;;3.90;78.30;;;;;;5024298;28;20631;-77
2022/01/13 09:12:35;;;;;;;25.90;16.17;;;3.90;78.40;;;;;;5001512;28;20242;-77
2022/01/13 09:15:16;;;;;;;23.20;15.57;;;3.90;78.40;;;;;;5020733;28;20220;-78
2022/01/13 09:17:45;;;;;;;20.90;14.93;;;3.90;78.30;;;;;;5016713;28;20231;-77
2022/01/13 09:20:16;;;;;;;25.10;15.98;;;3.90;78.30;;;;;;5023189;28;20602;-77
2022/01/13 09:22:44;;;;;;;23.27;16.55;;;3.90;78.40;;;;;;5019147;28;20212;-77
2022/01/13 09:25:13;;;;;;;22.15;15.05;;;3.90;78.40;;;;;;5018926;28;20209;-77
2022/01/13 09:27:41;;;;;;;26.20;16.75;;;3.90;78.50;;;;;;4998108;28;20229;-77
2022/01/13 09:30:14;;;;;;;29.63;16.45;;;3.90;78.40;;;;;;5000818;28;20201;-77
2022/01/13 09:32:43;;;;;;;23.33;16.33;;;4.00;78.50;;;;;;5003793;28;20244;-77
2022/01/13 09:35:11;;;;;;;21.80;15.32;;;4.00;78.60;;;;;;5022059;28;20272;-77
2022/01/13 09:37:39;;;;;;;25.45;17.33;;;4.00;78.50;;;;;;5004962;28;20229;-76
2022/01/13 09:40:10;;;;;;;22.58;16.77;;;4.00;78.50;;;;;;5000563;28;20671;-77
2022/01/13 09:42:41;;;;;;;25.33;17.02;;;4.00;78.50;;;;;;5016379;28;20293;-77
2022/01/13 09:45:12;;;;;;;21.95;14.85;;;4.00;78.60;;;;;;5015059;28;20293;-77
2022/01/13 09:47:41;;;;;;;24.77;15.82;;;4.10;78.60;;;;;;5020970;28;20232;-77
2022/01/13 09:50:12;;;;;;;22.25;16.55;;;4.10;78.70;;;;;;5010675;28;20214;-77
2022/01/13 09:52:41;;;;;;;21.35;15.20;;;4.10;78.60;;;;;;5021939;28;20205;-77
2022/01/13 09:55:12;;;;;;;22.00;15.70;;;4.20;78.60;;;;;;5025379;28;20201;-77
2022/01/13 09:57:42;;;;;;;23.25;15.98;;;4.20;78.60;;;;;;5020005;28;20235;-77
2022/01/13 10:00:14;;;;;;;20.23;14.80;;;4.20;78.60;;;;;;5023871;28;20208;-77
2022/01/13 10:02:42;;;;;;;22.25;15.05;;;4.20;78.60;;;;;;5022994;28;20204;-77
2022/01/13 10:05:11;;;;;;;22.73;15.95;;;4.20;78.50;;;;;;5021668;28;20201;-77
2022/01/13 10:07:41;;;;;;;22.58;15.88;;;4.20;78.40;;;;;;5025500;28;20241;-77
2022/01/13 10:10:25;;;;;;;22.08;15.73;;;4.10;78.50;;;;;;5023262;28;20272;-77
2022/01/13 10:13:01;;;;;;;24.02;15.80;;;4.20;78.70;;;;;;5023461;28;20201;-77
2022/01/13 10:18:40;;;;;;;22.95;14.57;;;4.20;78.70;;;;;;4964319;28;20238;-77
2022/01/13 10:21:08;;;;;;;22.60;16.60;;;4.30;78.70;;;;;;5007546;28;20729;-77
2022/01/13 10:23:37;;;;;;;21.45;16.30;;;4.30;78.60;;;;;;5021953;28;20627;-77
2022/01/13 10:26:12;;;;;;;23.35;15.68;;;4.30;78.60;;;;;;5024043;28;20205;-77
2022/01/13 10:28:41;;;;;;;21.92;15.75;;;4.30;78.70;;;;;;5007159;28;20229;-77
2022/01/13 10:31:10;;;;;;;22.58;15.88;;;4.30;78.70;;;;;;5024324;28;20193;-77
2022/01/13 10:33:38;;;;;;;23.65;16.08;;;4.40;78.60;;;;;;5005968;28;20217;-77
2022/01/13 10:36:08;;;;;;;24.55;17.33;;;4.40;78.60;;;;;;5014506;28;20659;-77
2022/01/13 10:38:51;;;;;;;26.65;17.88;;;4.40;78.60;;;;;;5025413;28;20259;-78
2022/01/13 10:41:35;;;;;;;26.63;17.95;;;4.50;78.50;;;;;;5017565;28;20208;-81
2022/01/13 10:44:21;;;;;;;32.70;19.63;;;4.50;78.40;;;;;;5023145;28;20207;-78
2022/01/13 10:47:01;;;;;;;80.72;44.72;;;4.40;78.40;;;;;;4999428;28;20780;-79
2022/01/13 10:49:34;;;;;;;107.28;39.75;;;4.40;78.50;;;;;;4999480;28;20225;-78
2022/01/13 10:52:18;;;;;;;40.13;21.77;;;4.40;78.50;;;;;;5019184;28;20611;-76
2022/01/13 10:54:47;;;;;;;31.25;18.92;;;4.40;78.50;;;;;;5022292;28;20236;-75
2022/01/13 10:57:19;;;;;;;27.98;18.90;;;4.40;78.50;;;;;;5023005;28;20258;-76
2022/01/13 10:59:47;;;;;;;26.10;18.52;;;4.50;78.50;;;;;;5022895;28;20201;-76
2022/01/13 11:02:18;;;;;;;28.17;17.75;;;4.50;78.50;;;;;;5021381;28;20621;-75
2022/01/13 11:04:47;;;;;;;26.30;18.15;;;4.50;78.60;;;;;;5019226;28;20232;-75
2022/01/13 11:07:16;;;;;;;25.90;17.98;;;4.50;78.60;;;;;;5015709;28;20234;-75
2022/01/13 11:09:53;;;;;;;25.08;18.75;;;4.50;78.60;;;;;;5017450;28;20206;-74
2022/01/13 11:12:33;;;;;;;28.38;19.42;;;4.60;78.60;;;;;;5019235;28;20205;-74
2022/01/13 11:15:04;;;;;;;28.70;17.50;;;4.60;78.60;;;;;;5016598;28;20263;-75
2022/01/13 11:17:37;;;;;;;28.98;19.35;;;4.70;78.60;;;;;;5005681;28;20229;-75
2022/01/13 11:20:07;;;;;;;26.23;18.40;;;4.70;78.60;;;;;;5021041;28;20193;-74
2022/01/13 11:22:43;;;;;;;25.70;18.98;;;4.70;78.50;;;;;;5016904;28;20272;-75
2022/01/13 11:25:14;;;;;;;27.27;18.38;;;4.70;78.50;;;;;;5019526;28;20863;-74
2022/01/13 11:27:44;;;;;;;25.67;17.83;;;4.70;78.50;;;;;;5017634;28;20698;-74
2022/01/13 11:30:14;;;;;;;23.80;17.50;;;4.70;78.50;;;;;;5016891;28;20213;-76
2022/01/13 11:32:44;;;;;;;27.80;17.88;;;4.70;78.50;;;;;;5015104;28;20206;-75
2022/01/13 11:35:14;;;;;;;26.55;18.17;;;4.70;78.40;;;;;;5017917;28;20202;-75
2022/01/13 11:37:43;;;;;;;24.42;17.05;;;4.70;78.30;;;;;;5008368;28;20781;-75
2022/01/13 11:40:33;;;;;;;26.90;18.55;;;4.70;78.30;;;;;;5014526;28;20719;-74
2022/01/13 11:43:04;;;;;;;27.35;17.40;;;4.70;78.50;;;;;;5014057;28;20206;-74
2022/01/13 11:45:39;;;;;;;25.73;17.65;;;4.70;78.60;;;;;;5015043;28;20213;-75
2022/01/13 11:48:17;;;;;;;29.23;19.25;;;4.80;78.60;;;;;;5022191;28;20228;-75
2022/01/13 11:50:50;;;;;;;27.42;17.58;;;4.80;78.60;;;;;;5018307;28;20263;-75
2022/01/13 11:53:25;;;;;;;24.75;17.55;;;4.80;78.60;;;;;;5017346;28;20232;-75
2022/01/13 11:55:56;;;;;;;26.45;19.02;;;4.80;78.60;;;;;;5019617;28;20251;-75
2022/01/13 11:58:45;;;;;;;28.33;18.25;;;4.80;78.60;;;;;;5014403;28;20249;-74
2022/01/13 12:01:19;;;;;;;29.08;19.95;;;4.90;78.70;;;;;;5017104;28;20295;-74
2022/01/13 12:03:51;;;;;;;25.27;17.83;;;4.90;78.70;;;;;;5021487;28;20566;-75
2022/01/13 12:06:41;;;;;;;26.30;17.83;;;4.90;78.70;;;;;;5019093;28;20201;-75
2022/01/13 12:09:12;;;;;;;24.50;17.50;;;5.00;78.80;;;;;;5013474;28;20208;-75
2022/01/13 12:11:50;;;;;;;26.45;17.63;;;5.00;78.80;;;;;;5017106;28;20267;-75
2022/01/13 12:14:39;;;;;;;27.77;17.08;;;5.10;78.60;;;;;;5018199;28;20744;-74
2022/01/13 12:20:21;;;;;;;29.60;17.92;;;5.10;78.60;;;;;;5004741;28;20220;-74
2022/01/13 12:22:58;;;;;;;25.52;15.95;;;5.10;78.50;;;;;;5013609;28;20214;-74
2022/01/13 12:25:32;;;;;;;23.52;16.23;;;5.10;78.40;;;;;;5015235;28;20221;-75
2022/01/13 12:28:12;;;;;;;24.75;17.33;;;5.10;78.50;;;;;;5000844;28;20695;-75
2022/01/13 12:30:40;;;;;;;26.10;17.50;;;5.20;78.50;;;;;;5016705;28;20268;-76
2022/01/13 12:33:13;;;;;;;26.05;18.25;;;5.20;78.50;;;;;;5019711;28;20193;-75
2022/01/13 12:35:45;;;;;;;26.23;18.63;;;5.20;78.50;;;;;;5018601;28;20209;-75
2022/01/13 12:38:16;;;;;;;24.30;17.65;;;5.20;78.50;;;;;;5017410;28;20263;-75
2022/01/13 12:40:50;;;;;;;26.10;16.98;;;5.20;78.30;;;;;;5018425;28;20263;-74
2022/01/13 12:43:36;;;;;;;29.38;17.52;;;5.20;78.40;;;;;;5016633;28;20422;-75
2022/01/13 12:46:07;;;;;;;23.67;17.60;;;5.20;78.40;;;;;;5018154;28;20210;-75
2022/01/13 12:48:37;;;;;;;25.88;17.25;;;5.20;78.50;;;;;;5021969;28;20217;-75
2022/01/13 12:51:07;;;;;;;25.25;17.65;;;5.30;78.50;;;;;;5017407;28;20201;-75
2022/01/13 12:53:37;;;;;;;26.40;17.38;;;5.30;78.60;;;;;;5016669;28;20210;-75
2022/01/13 12:56:09;;;;;;;30.45;16.10;;;5.30;78.50;;;;;;5016298;28;20741;-74
2022/01/13 12:58:40;;;;;;;23.95;18.17;;;5.30;78.30;;;;;;5019623;28;20225;-75
2022/01/13 13:01:11;;;;;;;25.33;17.88;;;5.30;78.20;;;;;;5020838;28;21163;-75
2022/01/13 13:03:40;;;;;;;24.20;16.63;;;5.30;78.30;;;;;;5016953;28;20281;-75
2022/01/13 13:06:13;;;;;;;23.80;16.50;;;5.30;78.50;;;;;;5017443;28;20208;-75
2022/01/13 13:08:44;;;;;;;28.20;19.90;;;5.30;78.50;;;;;;5012560;28;20804;-74
2022/01/13 13:11:13;;;;;;;26.70;17.50;;;5.30;78.50;;;;;;5019962;28;20465;-76